Aviation Digital Data Service (ADDS)

Output produced by METARs form (1706 UTC 24 April 2017)
found at http://www.aviationweather.gov/adds/metars/
 
FNBG 241200Z 29011KT 9999 FEW020 27/22 Q1013
TAF FNBG 241045Z 2412/2424 28004KT 9999 FEW015 
     TEMPO 2415/2419 17006KT 9999 SCT020 
       
FNCA 241600Z 19007KT 9999 FEW020 BKN100 20/24 Q1009
TAF FNCA 241045Z 2412/2424 22007KT 9999 FEW020 
     TEMPO 2415/2419 19007KT 9999 FEW020 FEW025CB 
     BECMG 2419/2421 00000KT 9999 FEW020 
       
FNHU 241200Z 23005KT 9999 FEW014 25/10 Q1021
TAF FNHU 241045Z 2412/2424 24005KT 9999 BKN012 
     PROB30 
     TEMPO 2415/2419 29005KT 9999 SCT013
       
TAF FNKU 241045Z 2412/2424 03005KT 9999 BKN013 
     PROB30 
     TEMPO 2415/2419 21005KT 9999 SCT013
       
FNLU 241700Z 24006KT 9999 SCT020 BKN100 26/23 Q1010
TAF FNLU 241645Z 2418/2524 26006KT 9999 FEW020 SCT100 
     BECMG 2500/2503 VRB02KT 9999 SCT018 
     TEMPO 2512/2516 26010KT 9999 FEW020 BKN090 
     BECMG 2519/2521 21006KT CAVOK
       
FNUE 241600Z 00000KT 9999 SCT040 26/20 Q1017
TAF FNUE 241045Z 2412/2424 30004KT 9999 BKN030 FEW040TCU 
     TEMPO 2415/2419 09006KT 9999 SCT030 FEW032TCU 
       
FNMA 241400Z 25008KT 9999 SCT008 BKN040 29/23 Q1014
TAF FNMA 241045Z 2412/2424 21004KT 9999 BKN008 FEW010CB 
     TEMPO 2415/2419 BKN008 FEW010CB OVC037 
     BECMG 2419/2421 19004KT 9999 BKN008 
       
TAF FNBC 241130Z 2412/2424 29007KT 9999 FEW020 FEW025CB 
     TEMPO 2415/2419 16007KT 9999 FEW010 SCT030
       
TAF FNME 241045Z 2412/2424 30004KT 9999 BKN030 
     TEMPO 2415/2419 20005KT 8000 -RA SCT030 FEW032TCU 
       
FNMO 241300Z 28009KT CAVOK 25/18 Q1013
TAF FNMO 241045Z 2412/2424 26011KT 9999 FEW008 
     TEMPO 2417/2421 23013KT CAVOK
       
TAF FNGI 241045Z 2412/2424 25011KT 9999 FEW007 
     TEMPO 2412/2419 VRB02KT 9999 FEW020
       
TAF FNSA 241045Z 2412/2424 19006KT 9999 SCT030 FEW032TCU 
     TEMPO 2415/2419 28008KT 7000 -RADZ FEW020 SCT030
       
TAF FNSO 241045Z 2412/2424 29007KT 9999 FEW020 FEW025CB 
     TEMPO 2415/2419 15005KT 9999 FEW020
       
FNSU 241300Z 23007KT 9999 FEW013 28/// Q1013
FNUG 241600Z 21006KT 9999 FEW025 SCT090 29/18 Q1013
TAF FNUG 241130Z 2412/2424 30008KT 9999 SCT020 
     TEMPO 2415/2419 18006KT 9000 VCSH BKN025